Time;durP1;ratioP1;P1;durP2;ratioP2;P2;SDS_P1;SDS_P2;PMS_P1;PMS_P2;Temp;Humidity;BMP_temperature;BMP_pressure;BME280_temperature;BME280_humidity;BME280_pressure;Samples;Min_cycle;Max_cycle;Signal;HPM_P1;HPM_P2
2023/07/26 00:01:26;;;;;;;13.13;10.63;;;16.00;99.90;;;;;;5033136;28;20694;-59
2023/07/26 00:03:54;;;;;;;10.40;9.40;;;16.00;99.90;;;;;;5033196;28;20209;-58
2023/07/26 00:06:21;;;;;;;12.90;9.93;;;16.10;99.90;;;;;;5032551;28;20241;-59
2023/07/26 00:08:48;;;;;;;13.50;10.30;;;16.10;99.90;;;;;;5033119;28;20217;-58
2023/07/26 00:11:14;;;;;;;12.73;10.10;;;16.20;99.90;;;;;;5033147;28;20206;-57
2023/07/26 00:13:41;;;;;;;11.88;10.13;;;16.20;99.90;;;;;;5032974;28;20209;-59
2023/07/26 00:16:09;;;;;;;11.32;10.23;;;16.30;99.90;;;;;;5032518;28;20206;-58
2023/07/26 00:18:36;;;;;;;16.80;10.38;;;16.30;99.90;;;;;;5033053;28;20210;-59
2023/07/26 00:21:03;;;;;;;12.67;10.93;;;16.30;99.90;;;;;;5032552;28;20206;-58
2023/07/26 00:23:30;;;;;;;13.18;10.82;;;16.20;99.90;;;;;;5032929;28;20211;-58
2023/07/26 00:25:57;;;;;;;15.10;10.80;;;16.20;99.90;;;;;;5032473;28;20238;-58
2023/07/26 00:28:24;;;;;;;12.68;11.38;;;16.30;99.90;;;;;;5095074;22;20235;-58
2023/07/26 00:30:51;;;;;;;13.75;11.00;;;16.20;99.90;;;;;;5074376;28;20201;-59
2023/07/26 00:33:19;;;;;;;14.07;12.65;;;16.20;99.90;;;;;;5073626;28;20205;-58
2023/07/26 00:35:45;;;;;;;15.15;12.25;;;16.20;99.90;;;;;;5072813;28;20208;-59
2023/07/26 00:38:12;;;;;;;16.90;12.50;;;16.10;99.90;;;;;;5073667;28;20236;-59
2023/07/26 00:40:40;;;;;;;16.15;12.43;;;16.10;99.90;;;;;;5073078;28;20295;-58
2023/07/26 00:43:06;;;;;;;13.10;11.77;;;16.10;99.90;;;;;;5073062;28;20205;-58
2023/07/26 00:45:36;;;;;;;14.93;12.13;;;16.20;99.90;;;;;;5072944;28;20248;-58
2023/07/26 00:48:03;;;;;;;15.85;13.38;;;16.20;99.90;;;;;;5072468;28;20602;-59
2023/07/26 00:50:31;;;;;;;14.35;12.10;;;16.30;99.90;;;;;;5072727;28;20227;-59
2023/07/26 00:52:58;;;;;;;14.65;13.00;;;16.30;99.90;;;;;;5072662;28;20201;-59
2023/07/26 00:55:25;;;;;;;16.52;12.18;;;16.20;99.90;;;;;;5071627;28;20282;-59
2023/07/26 00:57:52;;;;;;;15.48;13.88;;;16.20;99.90;;;;;;5071993;28;20228;-59
2023/07/26 01:00:19;;;;;;;13.40;11.95;;;16.20;99.90;;;;;;5072170;28;20653;-59
2023/07/26 01:02:46;;;;;;;17.90;13.95;;;16.20;99.90;;;;;;5072294;28;20209;-59
2023/07/26 01:05:13;;;;;;;14.90;13.40;;;16.30;99.90;;;;;;5072132;28;20228;-58
2023/07/26 01:07:48;;;;;;;16.25;13.48;;;16.30;99.90;;;;;;5071749;28;20228;-58
2023/07/26 01:10:20;;;;;;;15.20;13.60;;;16.30;99.90;;;;;;5072163;28;20200;-58
2023/07/26 01:12:57;;;;;;;14.53;12.53;;;16.30;99.90;;;;;;5072446;28;20212;-58
2023/07/26 01:15:29;;;;;;;15.23;13.55;;;16.30;99.90;;;;;;5072217;28;20201;-60
2023/07/26 01:18:10;;;;;;;15.65;12.70;;;16.30;99.90;;;;;;5071799;28;20240;-59
2023/07/26 01:20:36;;;;;;;14.18;12.65;;;16.30;99.90;;;;;;5071756;28;20606;-59
2023/07/26 01:23:05;;;;;;;13.60;12.20;;;16.30;99.90;;;;;;5071935;28;20231;-59
2023/07/26 01:25:31;;;;;;;15.07;12.60;;;16.30;99.90;;;;;;5071862;28;20252;-59
2023/07/26 01:27:58;;;;;;;13.43;12.05;;;16.30;99.90;;;;;;5071707;28;20242;-59
2023/07/26 01:30:29;;;;;;;13.65;11.93;;;16.30;99.90;;;;;;5072395;28;20217;-59
2023/07/26 01:32:58;;;;;;;14.15;12.15;;;16.30;99.90;;;;;;5072240;28;20594;-60
2023/07/26 01:35:25;;;;;;;14.32;11.23;;;16.30;99.90;;;;;;5071720;28;20672;-59
2023/07/26 01:37:53;;;;;;;13.30;11.70;;;16.30;99.90;;;;;;5072144;28;20221;-57
2023/07/26 01:40:22;;;;;;;14.73;12.85;;;16.30;99.90;;;;;;5072520;28;20642;-58
2023/07/26 01:42:49;;;;;;;13.15;11.45;;;16.30;99.90;;;;;;5072698;28;20286;-59
2023/07/26 01:45:16;;;;;;;14.73;11.70;;;16.30;99.90;;;;;;5072124;28;20228;-59
2023/07/26 01:47:43;;;;;;;13.68;11.80;;;16.30;99.90;;;;;;5071467;28;20573;-59
2023/07/26 01:50:11;;;;;;;15.23;12.57;;;16.20;99.90;;;;;;5071816;28;20551;-59
2023/07/26 01:52:37;;;;;;;13.25;11.88;;;16.20;99.90;;;;;;5071582;28;20648;-59
2023/07/26 01:55:05;;;;;;;15.25;11.52;;;16.20;99.90;;;;;;5071888;28;20200;-59
2023/07/26 01:57:33;;;;;;;16.00;12.27;;;16.10;99.90;;;;;;5071460;28;20228;-59
2023/07/26 02:00:00;;;;;;;13.20;11.93;;;16.10;99.90;;;;;;5071467;28;20205;-59
2023/07/26 02:02:27;;;;;;;14.98;12.27;;;16.00;99.90;;;;;;5071433;28;20613;-60
2023/07/26 02:04:53;;;;;;;13.65;11.50;;;16.00;99.90;;;;;;5071268;28;20630;-59
2023/07/26 02:07:20;;;;;;;13.70;12.27;;;15.90;99.90;;;;;;5070797;28;20232;-59
2023/07/26 02:09:47;;;;;;;13.10;11.23;;;15.90;99.90;;;;;;5071351;28;20242;-59
2023/07/26 02:12:13;;;;;;;13.03;11.73;;;16.00;99.90;;;;;;5071630;28;20209;-59
2023/07/26 02:14:41;;;;;;;12.88;11.48;;;15.90;99.90;;;;;;5071249;28;20319;-59
2023/07/26 02:17:08;;;;;;;13.57;11.27;;;15.90;99.90;;;;;;5070741;28;20225;-59
2023/07/26 02:19:35;;;;;;;14.15;11.30;;;15.90;99.90;;;;;;5070960;28;20208;-59
2023/07/26 02:22:02;;;;;;;12.15;10.40;;;15.90;99.90;;;;;;5071445;28;20266;-58
2023/07/26 02:24:28;;;;;;;11.82;10.63;;;15.90;99.90;;;;;;5071310;28;20249;-59
2023/07/26 02:26:55;;;;;;;10.95;9.95;;;15.90;99.90;;;;;;5070836;28;20232;-59
2023/07/26 02:29:22;;;;;;;11.00;9.55;;;15.90;99.90;;;;;;5071662;28;20216;-59
2023/07/26 02:31:50;;;;;;;10.93;9.33;;;15.80;99.90;;;;;;5071875;28;20205;-58
2023/07/26 02:34:17;;;;;;;12.73;9.32;;;15.80;99.90;;;;;;5071280;28;20569;-59
2023/07/26 02:36:43;;;;;;;10.47;9.00;;;15.80;99.90;;;;;;5071264;28;20225;-59
2023/07/26 02:39:10;;;;;;;12.63;9.50;;;15.70;99.90;;;;;;5071234;28;20204;-59
2023/07/26 02:41:36;;;;;;;10.73;9.63;;;15.70;99.90;;;;;;5070830;28;20668;-59
2023/07/26 02:44:03;;;;;;;11.27;9.37;;;15.60;99.90;;;;;;5070934;28;20235;-58
2023/07/26 02:46:30;;;;;;;10.25;9.07;;;15.60;99.90;;;;;;5071033;28;20225;-59
2023/07/26 02:48:58;;;;;;;11.27;8.80;;;15.60;99.90;;;;;;5071596;28;20212;-59
2023/07/26 02:51:25;;;;;;;10.17;9.27;;;15.50;99.90;;;;;;5071635;28;20258;-59
2023/07/26 02:53:51;;;;;;;9.77;8.87;;;15.50;99.90;;;;;;5071158;28;20287;-60
2023/07/26 02:56:18;;;;;;;13.33;9.90;;;15.50;99.90;;;;;;5070482;28;20197;-60
2023/07/26 02:58:45;;;;;;;9.70;8.70;;;15.50;99.90;;;;;;5070704;28;20730;-58
2023/07/26 03:01:11;;;;;;;9.57;8.57;;;15.50;99.90;;;;;;5070808;28;20311;-59
2023/07/26 03:03:38;;;;;;;10.27;8.67;;;15.50;99.90;;;;;;5070649;28;20209;-59
2023/07/26 03:06:06;;;;;;;8.83;7.90;;;15.50;99.90;;;;;;5070826;28;20239;-59
2023/07/26 03:08:33;;;;;;;11.67;8.70;;;15.60;99.90;;;;;;5070884;28;20224;-59
2023/07/26 03:11:00;;;;;;;9.73;8.10;;;15.50;99.90;;;;;;5070695;28;20232;-59
2023/07/26 03:13:27;;;;;;;12.87;9.30;;;15.50;99.90;;;;;;5070703;28;20244;-58
2023/07/26 03:15:54;;;;;;;11.60;7.03;;;15.50;99.90;;;;;;5070264;28;20205;-59
2023/07/26 03:18:21;;;;;;;10.17;6.53;;;15.40;99.90;;;;;;5072285;28;20229;-59
2023/07/26 03:20:48;;;;;;;7.33;6.53;;;15.40;99.90;;;;;;5074233;28;20205;-59
2023/07/26 03:23:16;;;;;;;9.23;5.90;;;15.30;99.90;;;;;;5074552;28;20495;-59
2023/07/26 03:25:43;;;;;;;10.23;6.17;;;15.30;99.90;;;;;;5074051;28;20221;-60
2023/07/26 03:28:10;;;;;;;8.90;5.97;;;15.20;99.90;;;;;;5073967;28;20260;-60
2023/07/26 03:30:36;;;;;;;6.30;5.40;;;15.20;99.90;;;;;;5074677;28;20215;-58
2023/07/26 03:33:03;;;;;;;6.50;5.03;;;15.10;99.90;;;;;;5074102;28;20208;-58
2023/07/26 03:35:30;;;;;;;5.90;4.70;;;15.00;99.90;;;;;;5074053;28;20201;-59
2023/07/26 03:37:57;;;;;;;7.67;4.97;;;15.00;99.90;;;;;;5073433;28;20606;-58
2023/07/26 03:40:25;;;;;;;7.13;4.57;;;14.90;99.90;;;;;;5073945;28;20220;-58
2023/07/26 03:42:51;;;;;;;8.03;5.40;;;14.90;99.90;;;;;;5073739;28;20212;-58
2023/07/26 03:45:18;;;;;;;5.50;5.00;;;14.80;99.90;;;;;;5073884;28;20212;-58
2023/07/26 03:47:45;;;;;;;7.00;5.00;;;14.70;99.90;;;;;;5073517;28;20225;-59
2023/07/26 03:50:11;;;;;;;9.13;4.80;;;14.60;99.90;;;;;;5073725;28;20681;-59
2023/07/26 03:52:38;;;;;;;6.23;5.10;;;14.60;99.90;;;;;;5073752;28;20236;-59
2023/07/26 03:55:06;;;;;;;6.30;5.03;;;14.50;99.90;;;;;;5073876;28;20212;-58
2023/07/26 03:57:34;;;;;;;6.07;4.87;;;14.50;99.90;;;;;;5073150;28;20700;-59
2023/07/26 04:00:00;;;;;;;5.97;4.67;;;14.50;99.90;;;;;;5074066;28;20297;-59
2023/07/26 04:02:27;;;;;;;7.57;5.40;;;14.40;99.90;;;;;;5074071;28;20201;-59
2023/07/26 04:04:54;;;;;;;9.00;5.47;;;14.40;99.90;;;;;;5073936;28;20242;-59
2023/07/26 04:07:21;;;;;;;5.20;4.70;;;14.40;99.90;;;;;;5073012;28;20237;-59
2023/07/26 04:09:47;;;;;;;6.23;5.07;;;14.40;99.90;;;;;;5073207;28;20212;-59
2023/07/26 04:12:14;;;;;;;8.83;7.20;;;14.40;99.90;;;;;;5072963;28;20584;-59
2023/07/26 04:14:42;;;;;;;6.87;5.70;;;14.50;99.90;;;;;;5073029;28;20247;-59
2023/07/26 04:17:09;;;;;;;6.80;5.10;;;14.60;99.90;;;;;;5072733;28;20217;-58
2023/07/26 04:19:36;;;;;;;5.13;4.40;;;14.60;99.90;;;;;;5073175;28;20351;-58
2023/07/26 04:22:02;;;;;;;7.17;4.83;;;14.70;99.90;;;;;;5073128;28;20207;-58
2023/07/26 04:24:29;;;;;;;5.33;4.80;;;14.70;99.90;;;;;;5073490;28;20266;-58
2023/07/26 04:26:56;;;;;;;4.80;4.40;;;14.80;99.90;;;;;;5072612;28;20233;-58
2023/07/26 04:29:22;;;;;;;7.03;4.87;;;14.90;99.90;;;;;;5073056;28;20209;-59
2023/07/26 04:31:50;;;;;;;5.03;4.53;;;15.00;99.90;;;;;;5073032;28;20220;-58
2023/07/26 04:34:17;;;;;;;4.90;4.40;;;15.20;99.90;;;;;;5072707;28;20582;-58
2023/07/26 04:36:44;;;;;;;10.03;4.70;;;15.30;99.90;;;;;;5072359;28;20223;-58
2023/07/26 04:39:11;;;;;;;4.80;4.33;;;15.50;99.90;;;;;;5073020;28;20216;-58
2023/07/26 04:41:37;;;;;;;4.33;3.87;;;15.60;99.90;;;;;;5072828;28;20266;-60
2023/07/26 04:44:04;;;;;;;10.35;4.78;;;15.70;99.90;;;;;;5072632;28;20208;-59
2023/07/26 04:46:31;;;;;;;4.53;4.00;;;15.90;99.90;;;;;;5072218;28;20228;-59
2023/07/26 04:48:59;;;;;;;4.50;3.67;;;16.00;99.90;;;;;;5072438;28;20255;-59
2023/07/26 04:51:26;;;;;;;6.17;4.07;;;16.00;99.90;;;;;;5072806;28;20209;-58
2023/07/26 04:53:53;;;;;;;5.60;4.00;;;16.10;99.90;;;;;;5072352;28;20201;-60
2023/07/26 04:56:19;;;;;;;7.03;4.60;;;16.20;99.90;;;;;;5072098;28;20209;-59
2023/07/26 04:58:47;;;;;;;4.10;3.70;;;16.20;99.90;;;;;;5072273;28;20217;-59
2023/07/26 05:01:14;;;;;;;9.20;4.38;;;16.30;99.90;;;;;;5072158;28;20278;-59
2023/07/26 05:03:40;;;;;;;5.23;3.97;;;16.30;99.90;;;;;;5072261;28;20201;-59
2023/07/26 05:06:11;;;;;;;5.45;4.00;;;16.30;99.90;;;;;;5071914;28;20518;-59
2023/07/26 05:08:37;;;;;;;5.18;3.70;;;16.50;99.90;;;;;;5072353;28;20243;-59
2023/07/26 05:11:05;;;;;;;8.73;3.85;;;16.60;99.90;;;;;;5072153;28;20205;-59
2023/07/26 05:13:31;;;;;;;9.63;3.72;;;16.80;99.90;;;;;;5071895;28;20673;-59
2023/07/26 05:15:58;;;;;;;7.90;3.58;;;16.90;99.90;;;;;;5071840;28;20288;-59
2023/07/26 05:18:25;;;;;;;7.78;3.85;;;17.10;99.90;;;;;;5072005;28;20228;-58
2023/07/26 05:20:53;;;;;;;7.22;3.90;;;17.30;99.90;;;;;;5072053;28;20208;-59
2023/07/26 05:23:21;;;;;;;5.57;3.45;;;17.40;99.90;;;;;;5072218;28;20209;-58
2023/07/26 05:25:48;;;;;;;4.88;3.13;;;17.60;99.90;;;;;;5071556;28;20212;-58
2023/07/26 05:28:15;;;;;;;6.32;3.13;;;17.60;99.90;;;;;;5071710;28;20237;-59
2023/07/26 05:30:43;;;;;;;9.35;3.10;;;17.50;99.90;;;;;;5071817;28;20204;-58
2023/07/26 05:33:10;;;;;;;4.95;3.15;;;17.50;99.90;;;;;;5071607;28;20207;-58
2023/07/26 05:35:38;;;;;;;5.30;3.30;;;17.50;99.90;;;;;;5071525;28;20284;-59
2023/07/26 05:38:05;;;;;;;4.65;3.05;;;17.60;99.90;;;;;;5071638;28;20288;-59
2023/07/26 05:40:33;;;;;;;5.75;3.30;;;17.70;99.90;;;;;;5071220;28;20215;-59
2023/07/26 05:43:00;;;;;;;4.53;3.28;;;17.70;99.90;;;;;;5071427;28;20640;-59
2023/07/26 05:45:27;;;;;;;4.53;3.22;;;17.70;99.90;;;;;;5071578;28;20237;-59
2023/07/26 05:47:53;;;;;;;4.55;2.90;;;17.70;99.90;;;;;;5071177;28;20718;-59
2023/07/26 05:50:20;;;;;;;6.00;3.13;;;17.70;99.90;;;;;;5071940;28;20262;-59
2023/07/26 05:52:47;;;;;;;3.58;3.10;;;17.80;99.90;;;;;;5071533;28;20299;-59
2023/07/26 05:55:13;;;;;;;5.22;3.08;;;17.80;99.90;;;;;;5071436;28;20669;-59
2023/07/26 05:57:42;;;;;;;9.05;3.05;;;17.90;99.90;;;;;;5071242;28;20231;-59
2023/07/26 06:00:11;;;;;;;6.00;3.22;;;17.90;99.90;;;;;;5071445;28;20204;-59
2023/07/26 06:02:37;;;;;;;5.10;3.22;;;18.00;99.90;;;;;;5071254;28;20204;-59
2023/07/26 06:05:06;;;;;;;3.90;2.65;;;18.20;99.90;;;;;;5071570;28;20205;-59
2023/07/26 06:07:32;;;;;;;6.68;3.00;;;18.30;99.90;;;;;;5070990;28;20256;-59
2023/07/26 06:09:59;;;;;;;5.68;2.80;;;18.40;99.90;;;;;;5071530;28;20216;-59
2023/07/26 06:12:26;;;;;;;5.45;2.95;;;18.50;99.90;;;;;;5071318;28;20212;-59
2023/07/26 06:14:54;;;;;;;4.68;2.97;;;18.70;99.90;;;;;;5070549;28;20208;-59
2023/07/26 06:17:20;;;;;;;2.97;2.40;;;18.70;99.90;;;;;;5070487;28;20224;-58
2023/07/26 06:19:48;;;;;;;4.82;2.67;;;18.80;99.90;;;;;;5071545;28;20291;-59
2023/07/26 06:22:14;;;;;;;5.30;2.97;;;18.80;99.90;;;;;;5071274;28;20259;-58
2023/07/26 06:24:41;;;;;;;4.15;2.83;;;19.00;99.90;;;;;;5072556;28;20255;-59
2023/07/26 06:27:08;;;;;;;3.40;2.78;;;19.10;99.90;;;;;;5072529;28;20231;-59
2023/07/26 06:29:36;;;;;;;8.77;2.90;;;19.30;99.90;;;;;;5071073;28;20220;-59
2023/07/26 06:32:05;;;;;;;10.55;3.53;;;19.30;99.90;;;;;;5071517;28;20278;-59
2023/07/26 06:34:32;;;;;;;4.32;2.92;;;19.40;99.90;;;;;;5071224;28;20200;-59
2023/07/26 06:36:59;;;;;;;6.45;3.20;;;19.40;99.90;;;;;;5070656;28;20584;-58
2023/07/26 06:39:27;;;;;;;4.45;2.47;;;19.50;99.90;;;;;;5071043;28;20216;-59
2023/07/26 06:41:53;;;;;;;4.70;2.45;;;19.60;99.90;;;;;;5070998;28;20259;-60
2023/07/26 06:44:20;;;;;;;3.70;2.72;;;19.60;99.90;;;;;;5070767;28;20209;-58
2023/07/26 06:46:47;;;;;;;4.57;2.50;;;19.80;99.90;;;;;;5070394;28;20232;-58
2023/07/26 06:49:15;;;;;;;5.57;2.13;;;19.90;99.90;;;;;;5071085;28;20205;-58
2023/07/26 06:51:42;;;;;;;3.58;2.42;;;20.10;99.90;;;;;;5070967;28;20209;-58
2023/07/26 06:54:08;;;;;;;4.07;2.53;;;20.20;99.90;;;;;;5073552;28;20201;-58
2023/07/26 06:56:35;;;;;;;5.22;2.58;;;20.30;99.90;;;;;;5074224;28;20220;-58
2023/07/26 06:59:08;;;;;;;5.90;2.20;;;20.30;99.90;;;;;;5074824;28;20386;-59
2023/07/26 07:01:34;;;;;;;3.70;2.22;;;20.40;99.90;;;;;;5074387;28;20663;-58
2023/07/26 07:04:01;;;;;;;4.70;2.20;;;20.60;99.90;;;;;;5074684;28;20209;-58
2023/07/26 07:06:29;;;;;;;4.28;2.20;;;20.70;99.90;;;;;;5074251;28;20208;-58
2023/07/26 07:08:56;;;;;;;4.10;2.35;;;20.80;99.90;;;;;;5074683;28;20208;-58
2023/07/26 07:11:22;;;;;;;4.32;2.20;;;20.80;99.90;;;;;;5074228;28;20209;-59
2023/07/26 07:13:49;;;;;;;5.07;2.40;;;20.80;99.90;;;;;;5072219;28;20205;-67
2023/07/26 07:16:16;;;;;;;3.35;2.38;;;20.90;99.90;;;;;;5075614;28;20208;-64
2023/07/26 07:18:42;;;;;;;3.97;2.65;;;21.00;99.90;;;;;;5074307;28;20204;-60
2023/07/26 07:21:09;;;;;;;5.80;2.60;;;21.00;99.90;;;;;;5073801;28;20559;-60
2023/07/26 07:23:37;;;;;;;3.55;2.08;;;21.10;99.90;;;;;;5074298;28;20561;-60
2023/07/26 07:26:04;;;;;;;4.57;2.42;;;21.20;99.90;;;;;;5073622;28;20572;-61
2023/07/26 07:28:31;;;;;;;5.85;2.03;;;21.60;99.90;;;;;;5073672;28;20818;-60
2023/07/26 07:30:57;;;;;;;8.10;4.05;;;21.80;99.90;;;;;;5074003;28;20213;-63
2023/07/26 07:33:24;;;;;;;4.05;1.98;;;21.60;99.90;;;;;;5073927;28;20205;-62
2023/07/26 07:35:51;;;;;;;3.58;2.00;;;21.20;99.90;;;;;;5073645;28;20287;-61
2023/07/26 07:38:17;;;;;;;6.25;2.20;;;20.80;99.90;;;;;;5073830;28;20233;-61
2023/07/26 07:40:46;;;;;;;3.97;2.20;;;20.30;99.90;;;;;;5073567;28;20261;-61
2023/07/26 07:43:12;;;;;;;2.72;1.90;;;20.10;99.90;;;;;;5073598;28;20738;-66
2023/07/26 07:45:40;;;;;;;3.53;1.67;;;19.90;99.90;;;;;;5073497;28;20578;-59
2023/07/26 07:48:07;;;;;;;3.08;2.13;;;19.80;99.90;;;;;;5073497;28;20610;-60
2023/07/26 07:50:34;;;;;;;7.88;5.18;;;19.70;99.90;;;;;;5073438;28;20213;-62
2023/07/26 07:53:01;;;;;;;3.78;1.98;;;19.70;99.90;;;;;;5073287;28;20212;-62
2023/07/26 07:55:31;;;;;;;5.22;2.10;;;19.70;99.90;;;;;;5073558;28;20205;-61
2023/07/26 07:57:59;;;;;;;4.05;2.00;;;19.60;99.90;;;;;;5073170;28;20229;-62
2023/07/26 08:00:26;;;;;;;3.90;1.95;;;19.50;99.90;;;;;;5073436;28;20228;-60
2023/07/26 08:02:53;;;;;;;4.10;2.03;;;19.30;99.90;;;;;;5073573;28;20201;-61
2023/07/26 08:05:19;;;;;;;3.05;2.33;;;18.90;99.90;;;;;;5073055;28;20675;-61
2023/07/26 08:07:46;;;;;;;3.10;2.00;;;18.70;99.90;;;;;;5072575;28;20574;-60
2023/07/26 08:10:13;;;;;;;5.00;2.78;;;18.50;99.90;;;;;;5073118;28;20205;-62
2023/07/26 08:12:40;;;;;;;2.90;2.10;;;18.40;99.90;;;;;;5073432;28;20217;-62
2023/07/26 08:15:08;;;;;;;5.78;2.22;;;18.40;99.90;;;;;;5073587;28;20201;-61
2023/07/26 08:17:35;;;;;;;3.80;2.28;;;18.40;99.90;;;;;;5073121;28;20722;-63
2023/07/26 08:20:02;;;;;;;3.25;2.30;;;18.50;99.90;;;;;;5073529;28;20209;-62
2023/07/26 08:22:29;;;;;;;4.03;2.40;;;18.40;99.90;;;;;;5073200;28;20209;-60
2023/07/26 08:24:55;;;;;;;7.10;2.38;;;18.40;99.90;;;;;;5074115;28;20233;-62
2023/07/26 08:27:23;;;;;;;3.40;2.30;;;18.60;99.90;;;;;;5073334;28;20232;-63
2023/07/26 08:29:50;;;;;;;3.20;2.17;;;18.80;99.90;;;;;;5073004;28;20287;-66
2023/07/26 08:32:18;;;;;;;2.80;2.13;;;19.00;99.90;;;;;;5072903;28;20692;-63
2023/07/26 08:34:44;;;;;;;3.15;2.33;;;19.30;99.90;;;;;;5073031;28;20692;-59
2023/07/26 08:37:11;;;;;;;2.92;2.20;;;19.70;99.90;;;;;;5072579;28;20593;-58
2023/07/26 08:39:38;;;;;;;7.07;4.40;;;20.10;99.90;;;;;;5073108;28;20204;-61
2023/07/26 08:42:05;;;;;;;3.42;2.58;;;20.30;99.90;;;;;;5072466;28;20211;-58
2023/07/26 08:44:33;;;;;;;4.00;2.20;;;20.40;99.90;;;;;;5072497;28;20605;-62
2023/07/26 08:47:02;;;;;;;4.00;2.25;;;20.30;99.90;;;;;;5071646;28;20232;-64
2023/07/26 08:49:31;;;;;;;3.20;2.05;;;20.40;99.90;;;;;;5072735;28;20274;-61
2023/07/26 08:52:02;;;;;;;4.85;2.20;;;20.70;99.90;;;;;;5072593;28;20211;-62
2023/07/26 08:54:30;;;;;;;2.88;1.90;;;20.90;99.90;;;;;;5072580;28;20280;-65
2023/07/26 08:56:57;;;;;;;4.47;2.70;;;20.90;99.90;;;;;;5072037;28;20229;-63
2023/07/26 08:59:23;;;;;;;3.90;2.13;;;20.90;99.90;;;;;;5072177;28;20204;-63
2023/07/26 09:01:51;;;;;;;5.40;2.30;;;20.90;99.90;;;;;;5072511;28;20208;-64
2023/07/26 09:04:18;;;;;;;4.38;2.38;;;21.10;99.90;;;;;;5072134;28;20209;-62
2023/07/26 09:06:48;;;;;;;3.92;2.20;;;21.40;99.90;;;;;;5061683;28;20225;-61
2023/07/26 09:09:15;;;;;;;3.72;2.10;;;21.60;99.90;;;;;;5068989;28;20232;-63
2023/07/26 09:11:49;;;;;;;4.75;2.25;;;22.00;99.90;;;;;;5071562;28;20209;-63
2023/07/26 09:14:16;;;;;;;2.90;2.13;;;22.30;99.90;;;;;;5072013;28;20211;-65
2023/07/26 09:16:43;;;;;;;3.55;1.90;;;22.50;99.90;;;;;;5071046;28;20282;-62
2023/07/26 09:19:10;;;;;;;3.28;1.75;;;22.50;99.90;;;;;;5070415;28;20201;-63
2023/07/26 09:21:37;;;;;;;4.30;2.17;;;22.50;99.90;;;;;;5069415;28;20307;-65
2023/07/26 09:24:07;;;;;;;3.55;1.88;;;22.50;99.90;;;;;;5071335;28;20677;-64
2023/07/26 09:26:36;;;;;;;4.32;2.17;;;22.60;99.90;;;;;;5071017;28;20221;-62
2023/07/26 09:29:06;;;;;;;4.90;2.05;;;22.90;99.90;;;;;;5071524;28;20213;-63
2023/07/26 09:31:34;;;;;;;3.70;1.60;;;22.90;99.90;;;;;;5071724;28;20579;-63
2023/07/26 09:34:08;;;;;;;2.83;1.90;;;22.80;99.90;;;;;;5071552;28;20241;-62
2023/07/26 09:36:45;;;;;;;5.25;1.92;;;22.80;99.90;;;;;;5071270;28;20225;-65
2023/07/26 09:39:14;;;;;;;2.60;1.80;;;22.70;99.90;;;;;;5071197;28;20211;-62
2023/07/26 09:41:42;;;;;;;3.63;1.63;;;22.40;99.90;;;;;;5071679;28;20205;-62
2023/07/26 09:44:15;;;;;;;2.00;1.48;;;22.10;99.90;;;;;;5071539;28;20220;-64
2023/07/26 09:46:49;;;;;;;3.35;2.00;;;21.80;99.90;;;;;;5070711;28;20260;-63
2023/07/26 09:49:16;;;;;;;2.80;1.55;;;21.60;99.90;;;;;;5069623;28;20314;-63
2023/07/26 09:51:44;;;;;;;3.22;1.92;;;21.50;99.90;;;;;;5071001;28;20262;-65
2023/07/26 09:54:13;;;;;;;2.17;1.63;;;21.40;99.90;;;;;;5069469;28;20204;-63
2023/07/26 09:56:41;;;;;;;5.28;2.00;;;21.10;99.90;;;;;;5070913;28;20221;-59
2023/07/26 09:59:10;;;;;;;6.75;2.53;;;20.60;99.90;;;;;;5071296;28;20664;-59
2023/07/26 10:01:41;;;;;;;2.63;1.70;;;20.20;99.90;;;;;;5070933;28;20228;-60
2023/07/26 10:04:12;;;;;;;6.63;1.67;;;19.80;99.90;;;;;;5071207;28;20205;-64
2023/07/26 10:06:42;;;;;;;3.00;1.67;;;19.30;99.90;;;;;;5068874;28;20333;-63
2023/07/26 10:09:12;;;;;;;5.40;2.08;;;19.10;99.90;;;;;;5070810;28;20604;-64
2023/07/26 10:11:42;;;;;;;3.33;2.00;;;18.90;99.90;;;;;;5070980;28;20216;-64
2023/07/26 10:14:11;;;;;;;5.53;2.10;;;18.90;99.90;;;;;;5071359;28;20243;-61
2023/07/26 10:16:38;;;;;;;3.55;2.15;;;18.90;99.90;;;;;;5070679;28;20278;-60
2023/07/26 10:19:06;;;;;;;2.60;2.03;;;19.10;99.90;;;;;;5071185;28;20212;-60
2023/07/26 10:21:34;;;;;;;2.58;1.50;;;19.30;99.90;;;;;;5071329;28;20213;-61
2023/07/26 10:24:03;;;;;;;2.20;1.70;;;19.50;99.90;;;;;;5071047;28;20213;-63
2023/07/26 10:26:32;;;;;;;3.72;2.00;;;19.70;99.90;;;;;;5070772;28;20673;-61
2023/07/26 10:29:01;;;;;;;2.15;1.63;;;19.90;99.90;;;;;;5075068;28;20333;-60
2023/07/26 10:31:28;;;;;;;5.43;2.00;;;20.00;99.90;;;;;;5073347;28;20208;-60
2023/07/26 10:33:56;;;;;;;3.78;1.42;;;20.10;99.90;;;;;;5073332;28;20205;-63
2023/07/26 10:36:28;;;;;;;2.63;1.67;;;20.10;99.90;;;;;;5072415;28;20212;-61
2023/07/26 10:38:54;;;;;;;2.15;1.60;;;20.10;99.90;;;;;;5074898;28;20197;-60
2023/07/26 10:41:22;;;;;;;2.47;1.38;;;20.10;99.90;;;;;;5074092;28;20213;-60
2023/07/26 10:43:50;;;;;;;1.73;1.40;;;20.40;99.90;;;;;;5072626;28;20235;-62
2023/07/26 10:46:20;;;;;;;1.88;1.38;;;20.80;99.90;;;;;;5073231;28;20212;-61
2023/07/26 10:48:48;;;;;;;2.30;1.58;;;21.30;99.90;;;;;;5074022;28;20224;-61
2023/07/26 10:51:26;;;;;;;3.50;1.20;;;21.60;99.90;;;;;;5075005;28;20208;-58
2023/07/26 10:53:54;;;;;;;2.10;1.20;;;21.70;99.90;;;;;;5074663;28;20215;-58
2023/07/26 10:56:24;;;;;;;2.58;1.38;;;22.00;99.90;;;;;;5074026;28;20322;-58
2023/07/26 10:58:53;;;;;;;4.03;1.40;;;22.30;99.90;;;;;;5074513;28;20208;-58
2023/07/26 11:01:38;;;;;;;2.55;1.75;;;22.40;99.90;;;;;;5074128;28;20217;-64
2023/07/26 11:04:11;;;;;;;1.75;1.38;;;22.50;99.90;;;;;;5075216;28;20204;-62
2023/07/26 11:06:56;;;;;;;9.45;3.80;;;22.70;99.90;;;;;;5071758;28;20253;-62
2023/07/26 11:09:25;;;;;;;2.72;1.48;;;23.10;99.90;;;;;;5074056;28;20732;-63
2023/07/26 11:11:57;;;;;;;5.18;3.13;;;23.20;99.90;;;;;;5073616;28;20298;-62
2023/07/26 11:14:25;;;;;;;5.47;2.03;;;23.40;99.90;;;;;;5072974;28;20578;-63
2023/07/26 11:16:53;;;;;;;1.45;1.00;;;23.70;99.90;;;;;;5073365;28;20581;-64
2023/07/26 11:19:20;;;;;;;3.03;1.40;;;23.80;99.90;;;;;;5072363;28;20207;-63
2023/07/26 11:21:46;;;;;;;5.47;1.60;;;23.70;99.90;;;;;;5074191;28;20212;-65
2023/07/26 11:24:13;;;;;;;5.85;2.20;;;23.40;99.90;;;;;;5073650;28;20641;-61
2023/07/26 11:26:44;;;;;;;4.40;1.70;;;23.00;99.90;;;;;;5072581;28;20499;-60
2023/07/26 11:29:11;;;;;;;7.50;2.13;;;22.70;99.90;;;;;;5073955;28;20225;-62
2023/07/26 11:31:39;;;;;;;3.22;2.10;;;22.50;99.90;;;;;;5074134;28;20215;-65
2023/07/26 11:34:19;;;;;;;4.28;2.47;;;22.40;99.90;;;;;;5074395;28;20271;-62
2023/07/26 11:36:46;;;;;;;5.10;2.20;;;22.40;99.90;;;;;;5071318;28;20232;-62
2023/07/26 11:39:20;;;;;;;2.50;2.13;;;22.40;99.90;;;;;;5072927;28;20710;-60
2023/07/26 11:41:47;;;;;;;4.65;2.63;;;22.50;99.90;;;;;;5074021;28;20266;-60
2023/07/26 11:44:15;;;;;;;2.90;2.03;;;22.50;99.90;;;;;;5071894;28;20209;-59
2023/07/26 11:46:43;;;;;;;3.38;1.75;;;22.50;99.90;;;;;;5073594;28;20225;-63
2023/07/26 11:49:12;;;;;;;4.50;2.20;;;22.60;99.90;;;;;;5073576;28;20763;-62
2023/07/26 11:51:41;;;;;;;3.53;2.58;;;23.00;99.90;;;;;;5072004;28;20201;-65
2023/07/26 11:54:10;;;;;;;16.30;8.88;;;23.20;99.90;;;;;;5073319;28;20213;-62
2023/07/26 11:56:37;;;;;;;4.72;2.70;;;23.50;99.90;;;;;;5072507;28;20289;-63
2023/07/26 11:59:05;;;;;;;6.05;2.53;;;23.70;99.90;;;;;;5070129;28;20739;-64
2023/07/26 12:01:33;;;;;;;4.32;1.90;;;23.90;99.90;;;;;;5072689;28;20676;-60
2023/07/26 12:04:00;;;;;;;3.47;2.10;;;24.00;99.90;;;;;;5073874;28;20212;-63
2023/07/26 12:06:30;;;;;;;3.90;2.10;;;23.90;99.90;;;;;;5073317;28;20733;-62
2023/07/26 12:09:09;;;;;;;2.40;1.73;;;24.00;99.90;;;;;;5074159;28;20274;-62
2023/07/26 12:11:35;;;;;;;3.20;1.75;;;24.00;99.90;;;;;;5074296;28;20269;-61
2023/07/26 12:14:02;;;;;;;4.65;2.08;;;24.00;99.90;;;;;;5073554;28;20335;-61
2023/07/26 12:16:30;;;;;;;3.35;2.25;;;24.00;99.90;;;;;;5071804;28;20213;-60
2023/07/26 12:19:00;;;;;;;4.80;2.40;;;23.90;99.90;;;;;;5072983;28;20201;-60
2023/07/26 12:21:28;;;;;;;3.80;2.28;;;23.70;99.90;;;;;;5073382;28;20235;-60
2023/07/26 12:23:56;;;;;;;2.95;1.60;;;23.70;99.90;;;;;;5072447;28;20205;-61
2023/07/26 12:26:25;;;;;;;3.55;1.50;;;23.70;99.90;;;;;;5071629;28;20205;-63
2023/07/26 12:28:53;;;;;;;3.40;1.80;;;23.60;99.90;;;;;;5050241;22;20241;-60
2023/07/26 12:31:22;;;;;;;1.48;1.35;;;23.70;99.90;;;;;;5032168;28;20297;-60
2023/07/26 12:34:00;;;;;;;1.83;1.58;;;23.80;99.80;;;;;;5033824;28;20218;-60
2023/07/26 12:36:30;;;;;;;2.58;1.70;;;24.00;99.10;;;;;;5031439;28;20222;-60
2023/07/26 12:38:57;;;;;;;2.20;1.80;;;24.10;97.90;;;;;;5032067;28;20262;-59
2023/07/26 12:41:26;;;;;;;2.28;1.70;;;24.00;97.10;;;;;;5032446;28;20206;-58
2023/07/26 12:43:54;;;;;;;3.60;1.90;;;24.10;95.80;;;;;;5032381;28;20233;-58
2023/07/26 12:46:21;;;;;;;4.10;2.05;;;23.80;96.40;;;;;;5032119;28;20693;-58